Time;durP1;ratioP1;P1;durP2;ratioP2;P2;SDS_P1;SDS_P2;PMS_P1;PMS_P2;Temp;Humidity;BMP_temperature;BMP_pressure;BME280_temperature;BME280_humidity;BME280_pressure;Samples;Min_cycle;Max_cycle;Signal;HPM_P1;HPM_P2
2020/12/20 00:01:24;;;;;;;23.15;7.28;;;10.30;99.90;;;;;;5059486;28;20393;-72
2020/12/20 00:03:49;;;;;;;13.05;6.63;;;10.30;99.90;;;;;;5061625;28;20031;-72
2020/12/20 00:06:17;;;;;;;15.27;6.78;;;10.30;99.90;;;;;;5061918;28;20029;-72
2020/12/20 00:08:45;;;;;;;14.40;6.65;;;10.30;99.90;;;;;;5059685;28;20094;-72
2020/12/20 00:11:10;;;;;;;13.15;6.10;;;10.40;99.90;;;;;;5064446;28;20052;-72
2020/12/20 00:13:36;;;;;;;12.13;6.47;;;10.40;99.90;;;;;;5067614;28;20060;-72
2020/12/20 00:16:02;;;;;;;12.05;6.40;;;10.30;99.90;;;;;;5061364;28;20068;-72
2020/12/20 00:18:27;;;;;;;13.65;6.65;;;10.30;99.90;;;;;;5058214;28;20071;-72
2020/12/20 00:20:53;;;;;;;11.00;6.25;;;10.30;99.90;;;;;;5058513;28;20028;-72
2020/12/20 00:23:19;;;;;;;12.43;6.25;;;10.30;99.90;;;;;;5057293;28;20052;-73
2020/12/20 00:25:44;;;;;;;13.80;5.97;;;10.30;99.90;;;;;;5056154;28;20033;-72
2020/12/20 00:28:10;;;;;;;13.02;6.07;;;10.30;99.90;;;;;;5053179;28;20028;-72
2020/12/20 00:30:35;;;;;;;10.57;5.22;;;10.30;99.90;;;;;;5054827;28;20047;-72
2020/12/20 00:33:01;;;;;;;10.65;5.43;;;10.30;99.90;;;;;;5057253;28;20553;-73
2020/12/20 00:35:27;;;;;;;13.45;5.65;;;10.30;99.90;;;;;;5055351;28;20390;-73
2020/12/20 00:37:52;;;;;;;12.00;5.63;;;10.30;99.90;;;;;;5060674;28;20029;-73
2020/12/20 00:40:18;;;;;;;7.35;4.90;;;10.30;99.90;;;;;;5055031;28;20481;-72
2020/12/20 00:42:44;;;;;;;18.02;5.80;;;10.30;99.90;;;;;;5058577;28;20481;-72
2020/12/20 00:45:09;;;;;;;12.85;5.53;;;10.30;99.90;;;;;;5052172;28;20029;-72
2020/12/20 00:47:35;;;;;;;8.30;4.50;;;10.20;99.90;;;;;;5053077;28;20048;-72
2020/12/20 00:50:03;;;;;;;14.50;6.32;;;10.30;99.90;;;;;;5053239;28;20459;-73
2020/12/20 00:52:28;;;;;;;10.75;5.55;;;10.30;99.90;;;;;;5051216;28;20029;-72
2020/12/20 00:54:54;;;;;;;12.57;6.25;;;10.20;99.90;;;;;;5054006;28;20036;-72
2020/12/20 00:57:20;;;;;;;13.50;5.57;;;10.20;99.90;;;;;;5058757;28;20021;-72
2020/12/20 00:59:45;;;;;;;10.73;5.50;;;10.30;99.90;;;;;;5054409;28;20742;-73
2020/12/20 01:02:11;;;;;;;12.77;5.80;;;10.30;99.90;;;;;;5048787;28;20025;-71
2020/12/20 01:04:39;;;;;;;15.32;5.15;;;10.30;99.90;;;;;;5054724;28;20032;-73
2020/12/20 01:07:05;;;;;;;14.48;6.35;;;10.30;99.90;;;;;;5051057;28;20032;-73
2020/12/20 01:09:30;;;;;;;11.80;5.80;;;10.20;99.90;;;;;;5055651;28;20040;-73
2020/12/20 01:11:57;;;;;;;14.85;5.97;;;10.30;99.90;;;;;;5055074;28;20032;-73
2020/12/20 01:14:24;;;;;;;11.07;6.32;;;10.30;99.90;;;;;;5053668;28;20044;-73
2020/12/20 01:16:49;;;;;;;10.45;5.80;;;10.20;99.90;;;;;;5058613;28;20465;-74
2020/12/20 01:19:15;;;;;;;15.60;6.80;;;10.30;99.90;;;;;;5054833;28;20159;-73
2020/12/20 01:21:41;;;;;;;11.40;7.97;;;10.20;99.90;;;;;;5057764;28;20026;-73
2020/12/20 01:24:07;;;;;;;11.48;6.38;;;10.30;99.90;;;;;;5054696;28;20397;-73
2020/12/20 01:26:32;;;;;;;11.82;5.32;;;10.20;99.90;;;;;;5057100;28;20469;-72
2020/12/20 01:28:58;;;;;;;9.82;4.80;;;10.30;99.90;;;;;;5061984;28;20028;-72
2020/12/20 01:31:24;;;;;;;15.60;6.13;;;10.20;99.90;;;;;;5055094;28;20107;-73
2020/12/20 01:33:50;;;;;;;10.32;5.30;;;10.20;99.90;;;;;;5056098;28;20039;-72
2020/12/20 01:36:16;;;;;;;11.70;5.53;;;10.20;99.90;;;;;;5056512;28;20059;-72
2020/12/20 01:38:42;;;;;;;11.85;5.28;;;10.30;99.90;;;;;;5057915;28;20032;-72
2020/12/20 01:41:08;;;;;;;16.33;5.40;;;10.30;99.90;;;;;;5057528;28;20029;-72
2020/12/20 01:43:46;;;;;;;10.68;4.85;;;10.30;99.90;;;;;;5053133;28;20029;-72
2020/12/20 01:46:17;;;;;;;15.50;5.75;;;10.30;99.90;;;;;;5055951;28;20036;-72
2020/12/20 01:48:43;;;;;;;13.93;5.30;;;10.30;99.90;;;;;;5052838;28;20482;-72
2020/12/20 01:51:09;;;;;;;10.73;5.07;;;10.30;99.90;;;;;;5051337;28;20039;-72
2020/12/20 01:53:35;;;;;;;10.18;4.65;;;10.30;99.90;;;;;;5053304;28;20796;-72
2020/12/20 01:56:03;;;;;;;10.95;5.03;;;10.30;99.90;;;;;;5052842;28;20108;-72
2020/12/20 01:58:28;;;;;;;12.93;5.55;;;10.40;99.90;;;;;;5053709;28;20028;-72
2020/12/20 02:00:55;;;;;;;10.75;5.28;;;10.40;99.90;;;;;;5056565;28;20020;-72
2020/12/20 02:03:24;;;;;;;9.95;5.32;;;10.40;99.90;;;;;;5051202;28;20067;-72
2020/12/20 02:05:50;;;;;;;8.50;4.80;;;10.40;99.90;;;;;;5052563;28;20371;-72
2020/12/20 02:08:17;;;;;;;10.15;5.47;;;10.40;99.90;;;;;;5052209;28;20021;-72
2020/12/20 02:10:43;;;;;;;8.60;4.95;;;10.40;99.90;;;;;;5053114;28;20036;-73
2020/12/20 02:13:08;;;;;;;8.23;5.03;;;10.30;99.90;;;;;;5053551;28;20027;-72
2020/12/20 02:15:34;;;;;;;12.65;5.38;;;10.30;99.90;;;;;;5051661;28;20029;-72
2020/12/20 02:18:00;;;;;;;11.10;5.35;;;10.30;99.90;;;;;;5050384;28;20029;-72
2020/12/20 02:20:26;;;;;;;14.88;5.63;;;10.30;99.90;;;;;;5051485;28;20497;-72
2020/12/20 02:22:57;;;;;;;7.72;5.28;;;10.30;99.90;;;;;;5050054;28;20029;-72
2020/12/20 02:25:24;;;;;;;11.15;5.10;;;10.30;99.90;;;;;;5050426;28;20032;-72
2020/12/20 02:27:50;;;;;;;9.07;5.20;;;10.30;99.90;;;;;;5049725;28;20371;-72
2020/12/20 02:30:16;;;;;;;13.95;5.88;;;10.30;99.90;;;;;;5050102;28;20031;-72
2020/12/20 02:32:42;;;;;;;11.57;5.25;;;10.30;99.90;;;;;;5052328;28;20025;-72
2020/12/20 02:35:07;;;;;;;8.27;4.88;;;10.30;99.90;;;;;;5051833;28;20032;-72
2020/12/20 02:37:33;;;;;;;12.02;5.10;;;10.30;99.90;;;;;;5052189;28;20470;-73
2020/12/20 02:40:00;;;;;;;6.93;5.10;;;10.30;99.90;;;;;;5049790;28;20048;-72
2020/12/20 02:42:26;;;;;;;10.32;5.38;;;10.30;99.90;;;;;;5050212;28;20765;-72
2020/12/20 02:44:51;;;;;;;9.93;4.80;;;10.40;99.90;;;;;;5051883;28;20155;-72
2020/12/20 02:47:17;;;;;;;11.88;5.07;;;10.40;99.90;;;;;;5048992;28;20531;-72
2020/12/20 02:49:43;;;;;;;11.25;4.85;;;10.40;99.90;;;;;;5050884;28;20068;-72
2020/12/20 02:52:08;;;;;;;12.18;5.05;;;10.40;99.90;;;;;;5053229;28;20029;-73
2020/12/20 02:54:34;;;;;;;10.20;5.07;;;10.40;99.90;;;;;;5053356;28;20037;-72
2020/12/20 02:57:00;;;;;;;11.90;4.55;;;10.40;99.90;;;;;;5050933;28;20482;-72
2020/12/20 02:59:25;;;;;;;10.43;4.80;;;10.30;99.90;;;;;;5050629;28;20025;-73
2020/12/20 03:01:51;;;;;;;8.65;4.63;;;10.30;99.90;;;;;;5049695;28;20063;-73
2020/12/20 03:04:17;;;;;;;12.65;4.90;;;10.30;99.90;;;;;;5050358;28;20104;-72
2020/12/20 03:06:45;;;;;;;10.07;4.88;;;10.30;99.90;;;;;;5052315;28;20025;-73
2020/12/20 03:09:11;;;;;;;10.20;4.00;;;10.40;99.90;;;;;;5058133;28;20090;-72
2020/12/20 03:11:36;;;;;;;11.88;4.22;;;10.40;99.90;;;;;;5050420;28;20021;-72
2020/12/20 03:14:02;;;;;;;9.55;4.10;;;10.30;99.90;;;;;;5058050;28;20060;-73
2020/12/20 03:16:27;;;;;;;12.13;4.50;;;10.40;99.90;;;;;;5052431;28;20032;-72
2020/12/20 03:18:53;;;;;;;8.35;4.57;;;10.30;99.90;;;;;;5057407;28;20029;-72
2020/12/20 03:21:21;;;;;;;7.03;3.92;;;10.40;99.90;;;;;;5064023;28;20047;-72
2020/12/20 03:23:47;;;;;;;7.63;3.90;;;10.40;99.90;;;;;;5052834;28;20013;-73
2020/12/20 03:26:12;;;;;;;10.68;3.90;;;10.30;99.90;;;;;;5054794;28;20036;-72
2020/12/20 03:28:38;;;;;;;9.63;4.05;;;10.40;99.90;;;;;;5054270;28;20044;-72
2020/12/20 03:31:03;;;;;;;7.18;4.28;;;10.30;99.90;;;;;;5063285;28;20070;-73
2020/12/20 03:33:29;;;;;;;14.05;4.60;;;10.40;99.90;;;;;;5062337;28;20036;-72
2020/12/20 03:35:55;;;;;;;8.02;3.65;;;10.40;99.90;;;;;;5066797;28;20033;-73
2020/12/20 03:38:21;;;;;;;11.23;4.18;;;10.40;99.90;;;;;;5056823;28;20029;-73
2020/12/20 03:40:46;;;;;;;7.57;4.72;;;10.40;99.90;;;;;;5062058;28;20033;-72
2020/12/20 03:43:12;;;;;;;8.68;4.47;;;10.40;99.90;;;;;;5056589;28;20535;-73
2020/12/20 03:45:37;;;;;;;11.48;4.18;;;10.40;99.90;;;;;;5061435;28;20074;-72
2020/12/20 03:48:03;;;;;;;7.80;4.25;;;10.30;99.90;;;;;;5058841;28;20100;-72
2020/12/20 03:50:32;;;;;;;12.70;4.72;;;10.30;99.90;;;;;;5064670;28;20036;-73
2020/12/20 03:52:58;;;;;;;13.15;4.28;;;10.30;99.90;;;;;;5057435;28;20025;-72
2020/12/20 03:55:23;;;;;;;8.25;4.03;;;10.40;99.90;;;;;;5058494;28;20087;-72
2020/12/20 03:57:49;;;;;;;7.75;4.57;;;10.30;99.90;;;;;;5060477;28;20021;-72
2020/12/20 04:00:15;;;;;;;12.60;4.97;;;10.30;99.90;;;;;;5056650;28;20032;-72
2020/12/20 04:02:41;;;;;;;10.90;3.78;;;10.30;99.90;;;;;;5061010;28;20658;-73
2020/12/20 04:05:06;;;;;;;9.55;4.18;;;10.30;99.90;;;;;;5058571;28;20037;-72
2020/12/20 04:07:32;;;;;;;8.18;3.50;;;10.30;99.90;;;;;;5057681;28;20074;-72
2020/12/20 04:09:57;;;;;;;13.93;4.25;;;10.30;99.90;;;;;;5058747;28;20044;-73
2020/12/20 04:12:23;;;;;;;12.38;4.65;;;10.30;99.90;;;;;;5060816;28;20035;-73
2020/12/20 04:14:49;;;;;;;9.95;4.57;;;10.40;99.90;;;;;;5056407;28;20029;-73
2020/12/20 04:17:14;;;;;;;9.73;4.00;;;10.40;99.90;;;;;;5059236;28;20053;-72
2020/12/20 04:19:40;;;;;;;11.30;4.47;;;10.40;99.90;;;;;;5064412;28;20032;-72
2020/12/20 04:22:06;;;;;;;11.02;3.83;;;10.40;99.90;;;;;;5057123;28;20481;-72
2020/12/20 04:24:31;;;;;;;10.55;3.50;;;10.40;99.90;;;;;;5065177;28;20021;-73
2020/12/20 04:26:57;;;;;;;8.77;3.80;;;10.40;99.90;;;;;;5065399;28;20028;-72
2020/12/20 04:29:22;;;;;;;10.80;3.78;;;10.40;99.90;;;;;;5054987;28;20028;-73
2020/12/20 04:31:48;;;;;;;10.02;4.07;;;10.40;99.90;;;;;;5060672;28;20075;-73
2020/12/20 04:34:14;;;;;;;8.75;4.20;;;10.50;99.90;;;;;;5058323;28;20084;-73
2020/12/20 04:36:39;;;;;;;9.93;4.60;;;10.50;99.90;;;;;;5055923;28;20017;-73
2020/12/20 04:39:05;;;;;;;11.73;4.32;;;10.40;99.90;;;;;;5056958;28;20459;-73
2020/12/20 04:41:31;;;;;;;12.15;4.38;;;10.40;99.90;;;;;;5057505;28;20474;-73
2020/12/20 04:43:56;;;;;;;11.85;4.05;;;10.40;99.90;;;;;;5057042;28;20441;-74
2020/12/20 04:46:25;;;;;;;7.63;3.97;;;10.50;99.90;;;;;;5058960;28;20435;-74
2020/12/20 04:48:52;;;;;;;7.45;3.88;;;10.50;99.90;;;;;;5054517;28;20116;-74
2020/12/20 04:51:18;;;;;;;11.65;4.38;;;10.50;99.90;;;;;;5067916;28;20154;-74
2020/12/20 04:53:47;;;;;;;9.93;4.15;;;10.50;99.90;;;;;;5061752;28;20043;-74
2020/12/20 04:56:13;;;;;;;9.55;4.43;;;10.50;99.90;;;;;;5060028;28;20017;-74
2020/12/20 04:58:40;;;;;;;9.95;4.05;;;10.60;99.90;;;;;;5060960;28;20081;-74
2020/12/20 05:01:07;;;;;;;13.82;4.00;;;10.60;99.90;;;;;;5058675;28;20021;-74
2020/12/20 05:03:33;;;;;;;11.75;4.28;;;10.50;99.90;;;;;;5059405;28;20036;-74
2020/12/20 05:05:59;;;;;;;13.35;3.80;;;10.60;99.90;;;;;;5055714;28;20017;-74
2020/12/20 05:08:25;;;;;;;10.80;3.60;;;10.50;99.90;;;;;;5057603;28;20032;-73
2020/12/20 05:10:53;;;;;;;9.48;4.15;;;10.50;99.90;;;;;;5056429;28;20024;-74
2020/12/20 05:13:20;;;;;;;16.92;4.13;;;10.50;99.90;;;;;;5053814;28;20025;-74
2020/12/20 05:15:47;;;;;;;12.30;3.80;;;10.50;99.90;;;;;;5056367;28;20024;-73
2020/12/20 05:18:17;;;;;;;9.35;3.53;;;10.50;99.90;;;;;;5057503;28;20029;-73
2020/12/20 05:20:45;;;;;;;15.50;4.55;;;10.50;99.90;;;;;;5059562;28;20091;-74
2020/12/20 05:23:12;;;;;;;6.85;3.90;;;10.50;99.90;;;;;;5065692;28;20560;-74
2020/12/20 05:25:39;;;;;;;15.60;4.18;;;10.50;99.90;;;;;;5059575;28;20028;-74
2020/12/20 05:28:08;;;;;;;9.50;4.22;;;10.40;99.90;;;;;;5058433;28;20032;-74
2020/12/20 05:30:34;;;;;;;10.80;4.18;;;10.40;99.90;;;;;;5053621;28;20029;-74
2020/12/20 05:32:59;;;;;;;15.57;3.92;;;10.40;99.90;;;;;;5057951;28;20071;-74
2020/12/20 05:35:25;;;;;;;15.82;4.22;;;10.40;99.90;;;;;;5058782;28;20480;-74
2020/12/20 05:37:51;;;;;;;13.23;3.70;;;10.50;99.90;;;;;;5057973;28;20017;-74
2020/12/20 05:40:34;;;;;;;14.70;4.25;;;10.40;99.90;;;;;;5061924;28;20076;-74
2020/12/20 05:43:05;;;;;;;11.40;3.65;;;10.40;99.90;;;;;;5056463;28;20032;-74
2020/12/20 05:45:35;;;;;;;21.27;4.60;;;10.50;99.90;;;;;;5055182;28;20030;-73
2020/12/20 05:48:30;;;;;;;12.52;4.40;;;10.50;99.90;;;;;;5059429;28;20028;-74
2020/12/20 05:51:02;;;;;;;11.60;3.88;;;10.40;99.90;;;;;;5052408;28;20139;-73
2020/12/20 05:53:32;;;;;;;17.17;4.25;;;10.40;99.90;;;;;;5059910;28;20477;-74
2020/12/20 05:55:59;;;;;;;16.10;3.85;;;10.40;99.90;;;;;;5054995;28;20032;-73
2020/12/20 05:58:28;;;;;;;11.98;4.10;;;10.40;99.90;;;;;;5066511;28;20029;-73
2020/12/20 06:00:55;;;;;;;9.82;3.53;;;10.40;99.90;;;;;;5058588;28;20104;-73
2020/12/20 06:03:21;;;;;;;13.90;4.15;;;10.40;99.90;;;;;;5055714;28;20089;-74
2020/12/20 06:05:48;;;;;;;13.43;3.90;;;10.40;99.90;;;;;;5054732;28;20131;-74
2020/12/20 06:08:21;;;;;;;12.40;4.20;;;10.30;99.90;;;;;;5059866;28;20021;-73
2020/12/20 06:10:52;;;;;;;17.20;4.25;;;10.30;99.90;;;;;;5055183;28;20051;-74
2020/12/20 06:13:20;;;;;;;12.88;3.70;;;10.30;99.90;;;;;;5058873;28;20028;-74
2020/12/20 06:15:52;;;;;;;16.33;5.00;;;10.30;99.90;;;;;;5057857;28;20482;-73
2020/12/20 06:18:28;;;;;;;19.58;4.68;;;10.30;99.90;;;;;;5054693;28;20025;-73
2020/12/20 06:21:02;;;;;;;9.35;4.15;;;10.30;99.90;;;;;;5056585;28;20485;-73
2020/12/20 06:23:28;;;;;;;9.93;3.88;;;10.20;99.90;;;;;;5054535;28;20166;-73
2020/12/20 06:25:55;;;;;;;11.50;4.55;;;10.30;99.90;;;;;;5054420;28;20389;-73
2020/12/20 06:28:22;;;;;;;13.95;3.40;;;10.30;99.90;;;;;;5067424;28;20123;-74
2020/12/20 06:30:48;;;;;;;11.65;3.72;;;10.30;99.90;;;;;;5061421;28;20039;-73
2020/12/20 06:33:40;;;;;;;8.85;4.28;;;10.30;99.90;;;;;;5058153;28;20024;-73
2020/12/20 06:36:10;;;;;;;11.38;3.78;;;10.40;99.90;;;;;;5055588;28;20166;-74
2020/12/20 06:38:37;;;;;;;11.45;3.85;;;10.30;99.90;;;;;;5059821;28;20570;-74
2020/12/20 06:41:03;;;;;;;17.50;4.30;;;10.30;99.90;;;;;;5060911;28;20037;-73
2020/12/20 06:43:34;;;;;;;13.70;3.92;;;10.30;99.90;;;;;;5059741;28;20032;-73
2020/12/20 06:46:01;;;;;;;12.23;3.50;;;10.30;99.90;;;;;;5059217;28;20029;-74
2020/12/20 06:48:37;;;;;;;17.48;3.45;;;10.30;99.90;;;;;;5054709;28;20083;-74
2020/12/20 06:51:05;;;;;;;8.20;3.67;;;10.30;99.90;;;;;;5055490;28;20024;-73
2020/12/20 06:53:46;;;;;;;10.20;3.90;;;10.30;99.90;;;;;;5058623;28;20028;-74
2020/12/20 06:56:20;;;;;;;15.20;4.15;;;10.30;99.90;;;;;;5062082;28;20032;-73
2020/12/20 06:58:46;;;;;;;11.20;3.70;;;10.30;99.90;;;;;;5054703;28;20017;-73
2020/12/20 07:01:39;;;;;;;28.83;4.78;;;10.40;99.90;;;;;;5060424;28;20546;-74
2020/12/20 07:04:15;;;;;;;13.95;4.10;;;10.30;99.90;;;;;;5053092;28;20025;-73
2020/12/20 07:06:41;;;;;;;14.65;4.18;;;10.30;99.90;;;;;;5049929;28;20021;-74
2020/12/20 07:09:07;;;;;;;20.05;4.18;;;10.30;99.90;;;;;;5061637;28;20041;-74
2020/12/20 07:11:41;;;;;;;14.52;4.25;;;10.30;99.90;;;;;;5051997;28;20100;-74
2020/12/20 07:14:18;;;;;;;18.65;4.72;;;10.30;99.90;;;;;;5057988;28;20048;-74
2020/12/20 07:16:44;;;;;;;15.18;4.60;;;10.30;99.90;;;;;;5052807;28;20592;-74
2020/12/20 07:19:18;;;;;;;12.50;4.22;;;10.30;99.90;;;;;;5055066;28;20115;-74
2020/12/20 07:21:52;;;;;;;16.80;4.47;;;10.30;99.90;;;;;;5054301;28;20106;-74
2020/12/20 07:24:21;;;;;;;9.70;3.78;;;10.40;99.90;;;;;;5063360;28;20055;-74
2020/12/20 07:26:48;;;;;;;12.45;4.03;;;10.40;99.90;;;;;;5054046;28;20101;-74
2020/12/20 07:29:14;;;;;;;16.05;4.50;;;10.40;99.90;;;;;;5054331;28;20378;-74
2020/12/20 07:31:40;;;;;;;17.00;4.30;;;10.40;99.90;;;;;;5054238;28;20434;-74
2020/12/20 07:34:07;;;;;;;14.80;4.63;;;10.30;99.90;;;;;;5056172;28;20162;-74
2020/12/20 07:36:33;;;;;;;14.13;4.50;;;10.30;99.90;;;;;;5057766;28;20474;-74
2020/12/20 07:39:00;;;;;;;15.15;4.57;;;10.30;99.90;;;;;;5060632;28;20032;-74
2020/12/20 07:41:25;;;;;;;11.63;3.90;;;10.30;99.90;;;;;;5056809;28;20035;-74
2020/12/20 07:43:52;;;;;;;13.73;4.10;;;10.20;99.90;;;;;;5056078;28;20037;-74
2020/12/20 07:46:19;;;;;;;15.85;3.85;;;10.20;99.90;;;;;;5053499;28;20036;-73
2020/12/20 07:48:45;;;;;;;12.45;4.93;;;10.20;99.90;;;;;;5058204;28;20043;-73
2020/12/20 07:51:19;;;;;;;15.25;4.75;;;10.20;99.90;;;;;;5059454;28;20100;-74
2020/12/20 07:53:51;;;;;;;22.80;4.15;;;10.20;99.90;;;;;;5056050;28;20382;-73
2020/12/20 07:56:40;;;;;;;22.80;4.60;;;10.20;99.90;;;;;;5054865;28;20563;-74
2020/12/20 07:59:14;;;;;;;15.45;4.90;;;10.20;99.90;;;;;;5059344;28;20315;-74
2020/12/20 08:01:41;;;;;;;12.18;4.78;;;10.10;99.90;;;;;;5052673;28;20013;-74
2020/12/20 08:04:12;;;;;;;17.75;4.50;;;10.10;99.90;;;;;;5053008;28;20029;-74
2020/12/20 08:06:40;;;;;;;16.48;4.90;;;10.10;99.90;;;;;;5055776;28;20187;-74
2020/12/20 08:09:11;;;;;;;15.43;4.45;;;10.10;99.90;;;;;;5056389;28;20151;-74
2020/12/20 08:11:38;;;;;;;24.15;4.85;;;10.10;99.90;;;;;;5050124;28;20059;-75
2020/12/20 08:14:09;;;;;;;13.45;4.10;;;10.10;99.90;;;;;;5053940;28;20108;-74
2020/12/20 08:16:39;;;;;;;11.80;3.95;;;10.20;99.90;;;;;;5052976;28;20098;-74
2020/12/20 08:19:07;;;;;;;13.52;4.78;;;10.10;99.90;;;;;;5061210;28;20035;-74
2020/12/20 08:22:00;;;;;;;17.55;4.65;;;10.10;99.90;;;;;;5058208;28;20021;-74
2020/12/20 08:24:34;;;;;;;14.75;4.57;;;10.10;99.90;;;;;;5054299;28;20032;-74
2020/12/20 08:27:13;;;;;;;15.25;4.63;;;10.10;99.90;;;;;;5054463;28;20029;-74
2020/12/20 08:29:39;;;;;;;18.85;5.32;;;10.20;99.90;;;;;;5054817;28;20032;-74
2020/12/20 08:32:16;;;;;;;15.25;5.03;;;10.20;99.90;;;;;;5059251;28;20078;-74
2020/12/20 08:34:42;;;;;;;15.35;4.90;;;10.20;99.90;;;;;;5055065;28;20033;-74
2020/12/20 08:37:16;;;;;;;14.20;4.68;;;10.20;99.90;;;;;;5063674;28;20025;-74
2020/12/20 08:39:42;;;;;;;24.33;6.03;;;10.20;99.90;;;;;;5059654;28;20025;-74
2020/12/20 08:42:10;;;;;;;16.77;5.22;;;10.20;99.90;;;;;;5055222;28;20384;-75
2020/12/20 08:44:37;;;;;;;13.15;4.25;;;10.20;99.90;;;;;;5060986;28;20029;-75
2020/12/20 08:47:12;;;;;;;18.90;5.57;;;10.20;99.90;;;;;;5058475;28;20025;-74
2020/12/20 08:49:52;;;;;;;15.93;4.80;;;10.20;99.90;;;;;;5063594;28;20428;-74
2020/12/20 08:52:18;;;;;;;15.10;5.15;;;10.20;99.90;;;;;;5061101;28;20078;-75
2020/12/20 08:54:48;;;;;;;17.88;4.60;;;10.20;99.90;;;;;;5057368;28;20047;-75
2020/12/20 08:57:14;;;;;;;19.45;4.65;;;10.20;99.90;;;;;;5060285;28;20021;-74
2020/12/20 08:59:42;;;;;;;16.98;4.47;;;10.30;99.90;;;;;;5058021;28;20078;-75
2020/12/20 09:02:19;;;;;;;14.35;4.82;;;10.20;99.90;;;;;;5052509;28;20099;-74
2020/12/20 09:04:59;;;;;;;14.95;4.30;;;10.20;99.90;;;;;;5056595;28;20409;-74
2020/12/20 09:07:36;;;;;;;21.58;4.65;;;10.30;99.90;;;;;;5054203;28;20052;-74
2020/12/20 09:10:12;;;;;;;19.45;4.55;;;10.30;99.90;;;;;;5054707;28;20033;-74
2020/12/20 09:12:58;;;;;;;24.48;5.68;;;10.30;99.90;;;;;;5053332;28;20047;-74
2020/12/20 09:15:35;;;;;;;13.43;4.45;;;10.30;99.90;;;;;;5053474;28;20067;-74
2020/12/20 09:18:17;;;;;;;33.40;4.72;;;10.40;99.90;;;;;;5050873;28;20033;-74
2020/12/20 09:20:44;;;;;;;21.25;5.40;;;10.40;99.90;;;;;;5057991;28;20431;-75
2020/12/20 09:23:23;;;;;;;17.73;4.95;;;10.40;99.90;;;;;;5059847;28;20508;-75
2020/12/20 09:25:57;;;;;;;17.80;4.70;;;10.50;99.90;;;;;;5062807;28;20033;-75
2020/12/20 09:28:28;;;;;;;18.15;5.07;;;10.50;99.90;;;;;;5057463;28;20032;-75
2020/12/20 09:30:55;;;;;;;19.27;5.43;;;10.50;99.90;;;;;;5059137;28;20064;-74
2020/12/20 09:33:27;;;;;;;16.63;5.32;;;10.50;99.90;;;;;;5056906;28;20548;-75
2020/12/20 09:36:14;;;;;;;20.23;4.85;;;10.50;99.90;;;;;;5062756;28;20496;-75
2020/12/20 09:38:51;;;;;;;15.50;4.80;;;10.50;99.90;;;;;;5061213;28;20403;-76
2020/12/20 09:41:21;;;;;;;23.40;5.70;;;10.60;99.90;;;;;;5059655;28;20048;-76
2020/12/20 09:43:48;;;;;;;11.75;4.93;;;10.50;99.90;;;;;;5053323;28;20021;-74
2020/12/20 09:46:24;;;;;;;16.45;4.28;;;10.60;99.90;;;;;;5058710;28;20377;-75
2020/12/20 09:48:51;;;;;;;17.02;4.85;;;10.60;99.90;;;;;;5056314;28;20021;-75
2020/12/20 09:51:18;;;;;;;20.17;4.40;;;10.60;99.90;;;;;;5052570;28;20037;-75
2020/12/20 09:53:45;;;;;;;14.82;4.68;;;10.60;99.90;;;;;;5054261;28;20053;-75
2020/12/20 09:56:12;;;;;;;21.77;5.18;;;10.60;99.90;;;;;;5061983;28;20021;-75
2020/12/20 09:58:38;;;;;;;17.38;4.63;;;10.60;99.90;;;;;;5054818;28;20078;-75
2020/12/20 10:01:04;;;;;;;17.48;4.32;;;10.70;99.90;;;;;;5051578;28;20020;-74
2020/12/20 10:03:30;;;;;;;14.07;4.53;;;10.70;99.90;;;;;;5052413;28;20040;-73
2020/12/20 10:05:57;;;;;;;16.48;4.68;;;10.70;99.90;;;;;;5054296;28;20024;-73
2020/12/20 10:08:25;;;;;;;23.95;6.18;;;10.70;99.90;;;;;;5056749;28;20027;-73
2020/12/20 10:10:54;;;;;;;17.58;5.97;;;10.70;99.90;;;;;;5056086;28;20021;-73
2020/12/20 10:13:21;;;;;;;21.05;6.60;;;10.70;99.90;;;;;;5052306;28;20036;-73
2020/12/20 10:15:46;;;;;;;21.75;5.25;;;10.80;99.90;;;;;;5056284;28;20510;-73
2020/12/20 10:18:12;;;;;;;14.40;5.30;;;10.70;99.90;;;;;;5052532;28;20071;-73
2020/12/20 10:20:38;;;;;;;18.73;4.93;;;10.80;99.90;;;;;;5052938;28;20032;-73
2020/12/20 10:23:04;;;;;;;15.23;4.80;;;10.80;99.90;;;;;;5062094;28;20025;-73
2020/12/20 10:25:30;;;;;;;16.42;5.00;;;10.80;99.90;;;;;;5053295;28;20029;-73
2020/12/20 10:27:56;;;;;;;16.30;5.00;;;10.80;99.90;;;;;;5057950;28;20103;-74
2020/12/20 10:30:22;;;;;;;16.35;5.25;;;10.80;99.90;;;;;;5057720;28;20046;-74
2020/12/20 10:32:48;;;;;;;24.67;5.30;;;10.80;99.90;;;;;;5053073;28;20021;-74
2020/12/20 10:35:18;;;;;;;17.83;4.60;;;10.70;99.90;;;;;;5053332;28;20032;-74
2020/12/20 10:37:44;;;;;;;16.70;5.75;;;10.80;99.90;;;;;;5052289;28;20489;-74
2020/12/20 10:40:10;;;;;;;19.02;4.78;;;10.80;99.90;;;;;;5052939;28;20027;-74
2020/12/20 10:42:36;;;;;;;16.98;5.07;;;10.80;99.90;;;;;;5048739;28;20025;-74
2020/12/20 10:45:03;;;;;;;15.70;5.75;;;10.80;99.90;;;;;;5055302;28;20029;-74
2020/12/20 10:47:28;;;;;;;24.75;6.00;;;10.70;99.90;;;;;;5053166;28;20017;-72
2020/12/20 10:49:54;;;;;;;21.88;6.47;;;10.80;99.90;;;;;;5051751;28;20052;-74
2020/12/20 10:52:21;;;;;;;18.25;4.60;;;10.90;99.90;;;;;;5050640;28;20036;-71
2020/12/20 10:54:47;;;;;;;20.55;4.97;;;10.90;99.90;;;;;;5055836;28;20033;-74
2020/12/20 10:57:12;;;;;;;23.77;5.30;;;10.80;99.90;;;;;;5060853;28;20028;-73
2020/12/20 10:59:38;;;;;;;14.77;4.78;;;10.80;99.90;;;;;;5060652;28;20037;-73
2020/12/20 11:02:05;;;;;;;18.17;5.00;;;10.80;99.90;;;;;;5057119;28;20074;-73
2020/12/20 11:04:31;;;;;;;17.75;4.68;;;10.80;99.90;;;;;;5058493;28;20163;-74
2020/12/20 11:07:01;;;;;;;20.67;4.88;;;10.70;99.90;;;;;;5058631;28;20025;-73
2020/12/20 11:09:27;;;;;;;16.67;4.45;;;10.80;99.90;;;;;;5056152;28;20131;-73
2020/12/20 11:11:54;;;;;;;19.13;5.03;;;10.80;99.90;;;;;;5056322;28;20086;-74
2020/12/20 11:14:20;;;;;;;14.32;4.45;;;10.70;99.90;;;;;;5056623;28;20028;-73
2020/12/20 11:16:48;;;;;;;21.48;5.18;;;10.80;99.90;;;;;;5056080;28;20017;-74
2020/12/20 11:19:13;;;;;;;24.33;5.22;;;10.80;99.90;;;;;;5052795;28;20063;-73
2020/12/20 11:21:40;;;;;;;14.60;4.80;;;10.80;99.90;;;;;;5051151;28;20056;-73
2020/12/20 11:24:05;;;;;;;17.17;5.07;;;10.80;99.90;;;;;;5049493;28;20029;-73
2020/12/20 11:26:31;;;;;;;30.92;6.18;;;10.80;99.90;;;;;;5053656;28;20032;-73
2020/12/20 11:28:57;;;;;;;21.45;5.18;;;10.90;99.90;;;;;;5054804;28;20036;-74
2020/12/20 11:31:24;;;;;;;17.80;6.07;;;10.90;99.90;;;;;;5052193;28;20543;-73
2020/12/20 11:33:51;;;;;;;27.85;6.40;;;10.90;99.90;;;;;;5049536;28;20466;-73
2020/12/20 11:36:20;;;;;;;15.00;5.18;;;11.00;99.90;;;;;;5056790;28;20025;-74
2020/12/20 11:38:47;;;;;;;17.25;4.60;;;11.00;99.90;;;;;;5055094;28;20099;-74
2020/12/20 11:41:13;;;;;;;19.42;4.60;;;11.00;99.90;;;;;;5065071;28;20370;-74
2020/12/20 11:43:39;;;;;;;16.95;5.13;;;11.00;99.90;;;;;;5057103;28;21195;-74
2020/12/20 11:46:05;;;;;;;23.25;4.80;;;11.00;99.90;;;;;;5051274;28;20100;-74
2020/12/20 11:48:31;;;;;;;24.30;5.53;;;11.00;99.90;;;;;;5052976;28;20554;-74
2020/12/20 11:50:57;;;;;;;13.55;4.90;;;11.00;99.90;;;;;;5058067;28;20041;-73
2020/12/20 11:53:25;;;;;;;15.70;4.35;;;11.00;99.90;;;;;;5053485;28;20095;-73
2020/12/20 11:55:51;;;;;;;21.38;5.85;;;11.10;99.90;;;;;;5055562;28;20024;-73
2020/12/20 11:58:17;;;;;;;21.42;5.65;;;11.10;99.90;;;;;;5052261;28;20035;-73
2020/12/20 12:00:47;;;;;;;21.85;5.05;;;11.10;99.90;;;;;;5058470;28;20048;-73
2020/12/20 12:03:14;;;;;;;18.83;4.88;;;11.20;99.90;;;;;;5058649;28;20033;-73
2020/12/20 12:05:44;;;;;;;17.42;4.95;;;11.20;99.90;;;;;;5065274;28;20104;-74
2020/12/20 12:08:11;;;;;;;16.15;4.28;;;11.20;99.90;;;;;;5062928;28;20044;-74
2020/12/20 12:10:41;;;;;;;13.52;5.28;;;11.30;99.90;;;;;;5054753;28;20033;-74
2020/12/20 12:13:07;;;;;;;20.58;4.30;;;11.30;99.90;;;;;;5054221;28;20040;-74
2020/12/20 12:15:34;;;;;;;15.27;4.32;;;11.30;99.90;;;;;;5059727;28;20025;-73
2020/12/20 12:17:59;;;;;;;19.25;4.72;;;11.30;99.90;;;;;;5053570;28;20094;-74
2020/12/20 12:20:25;;;;;;;17.75;5.80;;;11.30;99.90;;;;;;5057596;28;20473;-73
2020/12/20 12:22:52;;;;;;;19.65;5.15;;;11.30;99.90;;;;;;5055641;28;20021;-74
2020/12/20 12:25:18;;;;;;;16.88;4.85;;;11.30;99.90;;;;;;5059402;28;20049;-74
2020/12/20 12:27:43;;;;;;;20.83;4.90;;;11.20;99.90;;;;;;5057072;28;20519;-74
2020/12/20 12:30:14;;;;;;;16.95;4.55;;;11.10;99.90;;;;;;5048053;28;20048;-73
2020/12/20 12:32:41;;;;;;;15.63;4.00;;;11.20;99.90;;;;;;5057327;28;20028;-74
2020/12/20 12:35:08;;;;;;;18.90;5.35;;;11.30;99.90;;;;;;5058298;28;20038;-74
2020/12/20 12:37:34;;;;;;;19.50;4.97;;;11.40;99.90;;;;;;5057805;28;20032;-73
2020/12/20 12:40:01;;;;;;;22.20;6.90;;;11.30;99.90;;;;;;5054896;28;20028;-73
2020/12/20 12:42:26;;;;;;;17.02;4.72;;;11.40;99.90;;;;;;5056503;28;20160;-73